Time;durP1;ratioP1;P1;durP2;ratioP2;P2;SDS_P1;SDS_P2;PMS_P1;PMS_P2;Temp;Humidity;BMP_temperature;BMP_pressure;BME280_temperature;BME280_humidity;BME280_pressure;Samples;Min_cycle;Max_cycle;Signal;HPM_P1;HPM_P2
2022/12/06 00:01:20;;;;;;;21.92;14.00;;;;;;;1.46;94.33;98973.25;5014056;28;20113;-81
2022/12/06 00:03:50;;;;;;;26.73;14.02;;;;;;;1.43;92.88;98963.09;5019876;28;20139;-82
2022/12/06 00:06:18;;;;;;;22.35;14.02;;;;;;;1.81;92.58;98969.72;5012910;28;20413;-83
2022/12/06 00:08:44;;;;;;;23.73;14.38;;;;;;;1.07;93.29;98972.81;5024017;28;20040;-82
2022/12/06 00:11:16;;;;;;;21.50;15.10;;;;;;;1.17;93.94;98918.13;5002449;28;20520;-82
2022/12/06 00:13:41;;;;;;;27.67;15.05;;;;;;;1.17;93.63;98968.91;5003471;28;20044;-82
2022/12/06 00:16:10;;;;;;;23.58;13.60;;;;;;;1.36;93.06;98964.81;5012919;28;20037;-82
2022/12/06 00:18:38;;;;;;;26.67;16.15;;;;;;;0.83;94.01;98952.13;5014273;28;20040;-82
2022/12/06 00:21:10;;;;;;;30.00;16.48;;;;;;;0.64;95.21;98962.19;5017955;28;20416;-82
2022/12/06 00:23:38;;;;;;;32.95;17.15;;;;;;;0.51;95.84;98941.00;5018219;28;20453;-82
2022/12/06 00:26:04;;;;;;;23.13;13.75;;;;;;;0.59;95.86;98963.75;5023871;28;20029;-82
2022/12/06 00:28:30;;;;;;;35.22;17.98;;;;;;;0.35;96.16;98933.31;5022583;28;20033;-82
2022/12/06 00:31:00;;;;;;;30.25;16.75;;;;;;;0.38;96.68;98961.84;5003076;28;20037;-82
2022/12/06 00:33:26;;;;;;;24.90;14.75;;;;;;;0.81;97.04;98964.63;5022329;28;20440;-82
2022/12/06 00:35:59;;;;;;;30.15;17.83;;;;;;;0.62;96.27;98964.19;5024510;28;20032;-82
2022/12/06 00:38:25;;;;;;;31.55;15.13;;;;;;;0.92;96.37;98958.91;5012787;28;20115;-83
2022/12/06 00:41:03;;;;;;;29.27;18.10;;;;;;;0.69;95.37;98938.00;5017529;28;20117;-82
2022/12/06 00:43:28;;;;;;;29.30;15.10;;;;;;;0.74;96.61;98967.16;5018682;28;20037;-82
2022/12/06 00:45:54;;;;;;;36.30;18.52;;;;;;;0.64;95.91;98953.47;5006102;28;20033;-82
2022/12/06 00:48:19;;;;;;;31.35;15.38;;;;;;;1.39;97.41;98961.84;5026450;28;20124;-83
2022/12/06 00:50:44;;;;;;;33.20;19.55;;;;;;;1.50;94.69;98949.03;5023992;28;20545;-82
2022/12/06 00:53:10;;;;;;;28.30;17.40;;;;;;;0.84;95.02;98957.19;5003759;28;20092;-83
2022/12/06 00:55:35;;;;;;;28.38;15.95;;;;;;;0.98;95.43;98968.66;5005518;28;20109;-82
2022/12/06 00:58:00;;;;;;;30.80;17.40;;;;;;;0.70;95.13;98955.38;5020312;28;20041;-82
2022/12/06 01:00:26;;;;;;;31.85;17.23;;;;;;;0.69;95.90;98959.84;4982610;28;20036;-82
2022/12/06 01:02:51;;;;;;;28.63;17.38;;;;;;;0.47;96.50;98934.50;4999614;28;20497;-82
2022/12/06 01:05:17;;;;;;;26.92;14.73;;;;;;;0.73;97.66;98945.34;5020600;28;20440;-83
2022/12/06 01:07:42;;;;;;;25.20;15.70;;;;;;;1.57;96.48;98935.09;5011191;28;20060;-82
2022/12/06 01:10:08;;;;;;;27.65;15.25;;;;;;;1.68;95.62;98960.91;5005090;28;20489;-83
2022/12/06 01:12:33;;;;;;;30.13;14.70;;;;;;;1.77;94.83;98936.09;5017542;28;20118;-83
2022/12/06 01:14:58;;;;;;;28.00;14.57;;;;;;;1.96;93.82;98943.31;5007448;28;20175;-82
2022/12/06 01:17:24;;;;;;;25.52;15.07;;;;;;;2.03;94.04;98946.81;5026080;28;20043;-83
2022/12/06 01:19:49;;;;;;;27.63;15.60;;;;;;;1.84;93.23;98942.19;5010333;28;20021;-82
2022/12/06 01:22:15;;;;;;;27.52;16.02;;;;;;;1.89;93.13;98951.16;5012163;28;20045;-83
2022/12/06 01:24:40;;;;;;;22.67;14.50;;;;;;;1.91;92.79;98936.00;5027450;28;20513;-82
2022/12/06 01:27:06;;;;;;;21.65;13.25;;;;;;;1.86;94.01;98948.91;5025703;28;20037;-83
2022/12/06 01:29:31;;;;;;;21.23;12.32;;;;;;;1.77;94.08;98954.50;5022902;28;20029;-82
2022/12/06 01:31:57;;;;;;;23.60;13.50;;;;;;;2.22;93.04;98952.22;5023344;28;20025;-83
2022/12/06 01:34:22;;;;;;;25.73;14.90;;;;;;;2.13;93.52;98949.91;5025580;28;20553;-82
2022/12/06 01:36:48;;;;;;;22.58;13.90;;;;;;;2.22;92.88;98946.13;5007960;28;20029;-82
2022/12/06 01:39:14;;;;;;;22.60;14.05;;;;;;;2.03;92.94;98946.81;5022157;28;20056;-82
2022/12/06 01:41:39;;;;;;;22.60;14.35;;;;;;;2.19;93.26;98949.16;5025325;28;20037;-83
2022/12/06 01:44:06;;;;;;;22.40;13.57;;;;;;;2.23;92.40;98953.84;5021727;28;20048;-83
2022/12/06 01:46:42;;;;;;;23.67;14.82;;;;;;;2.25;92.51;98959.72;5025987;28;20037;-83
2022/12/06 01:49:10;;;;;;;23.95;14.68;;;;;;;2.09;92.32;98954.78;5009167;28;20030;-83
2022/12/06 01:51:37;;;;;;;27.52;14.57;;;;;;;2.15;92.49;98940.00;5026578;28;20048;-82
2022/12/06 01:54:07;;;;;;;23.15;14.15;;;;;;;2.22;92.61;98941.69;5026110;28;20036;-83
2022/12/06 01:56:32;;;;;;;24.75;14.07;;;;;;;2.07;93.18;98945.44;5031843;28;20511;-83
2022/12/06 01:58:59;;;;;;;34.78;17.23;;;;;;;1.99;92.02;98924.50;5020161;28;20116;-83
2022/12/06 02:01:26;;;;;;;23.77;14.95;;;;;;;1.98;92.62;98946.56;5004561;28;22061;-83
2022/12/06 02:03:54;;;;;;;26.77;16.02;;;;;;;1.75;93.47;98920.47;5021300;28;20076;-83
2022/12/06 02:06:20;;;;;;;29.95;16.83;;;;;;;2.02;92.86;98911.78;5021237;28;20040;-83
2022/12/06 02:08:46;;;;;;;26.52;15.35;;;;;;;1.83;93.27;98928.25;5004942;28;20042;-83
2022/12/06 02:11:11;;;;;;;28.75;16.92;;;;;;;1.67;93.51;98935.59;5024137;28;20120;-83
2022/12/06 02:13:38;;;;;;;32.22;17.88;;;;;;;1.87;93.58;98936.56;5025982;28;20032;-82
2022/12/06 02:16:38;;;;;;;28.23;15.05;;;;;;;1.95;93.28;98944.31;5024058;28;20041;-82
2022/12/06 02:19:41;;;;;;;31.63;17.55;;;;;;;2.11;93.57;98944.03;5022848;28;20113;-84
2022/12/06 02:22:15;;;;;;;34.35;19.88;;;;;;;1.42;93.25;98932.56;5023876;28;20022;-83
2022/12/06 02:24:56;;;;;;;35.80;18.88;;;;;;;1.26;93.15;98933.59;5026543;28;20037;-83
2022/12/06 02:27:52;;;;;;;39.42;19.90;;;;;;;1.46;93.19;98937.22;5024222;28;20032;-82
2022/12/06 02:30:36;;;;;;;28.25;16.05;;;;;;;1.52;95.54;98931.22;5012927;28;20033;-82
2022/12/06 02:33:29;;;;;;;33.58;17.90;;;;;;;2.08;94.02;98931.25;5019427;28;20029;-82
2022/12/06 02:36:19;;;;;;;35.47;18.02;;;;;;;2.02;93.73;98924.13;5037083;28;20080;-82
2022/12/06 02:38:52;;;;;;;35.65;19.27;;;;;;;2.00;93.46;98887.47;5027633;28;20497;-82
2022/12/06 02:42:05;;;;;;;31.77;17.92;;;;;;;2.42;92.02;98917.28;5025956;28;21183;-82
2022/12/06 02:44:44;;;;;;;30.38;16.83;;;;;;;2.43;91.81;98913.63;5000288;28;20025;-83
2022/12/06 02:47:13;;;;;;;24.10;15.23;;;;;;;2.42;91.65;98914.66;5007817;28;20045;-83
2022/12/06 02:49:45;;;;;;;26.88;15.73;;;;;;;2.35;91.61;98896.19;5021946;28;20123;-83
2022/12/06 02:52:11;;;;;;;28.40;16.15;;;;;;;2.27;91.31;98909.53;5020654;28;20070;-83
2022/12/06 02:54:38;;;;;;;25.70;15.23;;;;;;;2.11;91.92;98888.75;5025116;28;20074;-83
2022/12/06 02:57:04;;;;;;;27.15;15.65;;;;;;;2.28;91.24;98876.91;5018953;28;20032;-82
2022/12/06 02:59:29;;;;;;;26.48;15.70;;;;;;;2.27;91.30;98883.97;5020393;28;20037;-83
2022/12/06 03:01:58;;;;;;;26.42;15.88;;;;;;;2.34;92.02;98894.53;5018518;28;20504;-83
2022/12/06 03:04:48;;;;;;;28.25;16.25;;;;;;;2.22;91.03;98909.28;5020110;28;20037;-83
2022/12/06 03:07:20;;;;;;;30.90;18.65;;;;;;;2.32;92.19;98909.72;5017919;28;20051;-83
2022/12/06 03:10:06;;;;;;;26.20;16.27;;;;;;;2.38;91.24;98906.31;5019327;28;20033;-82
2022/12/06 03:12:49;;;;;;;25.77;16.45;;;;;;;2.49;91.64;98912.88;5019976;28;20040;-82
2022/12/06 03:15:34;;;;;;;28.02;17.30;;;;;;;1.87;92.18;98870.78;5021603;28;21276;-82
2022/12/06 03:18:18;;;;;;;28.85;15.98;;;;;;;2.21;92.77;98899.75;5021512;28;20029;-82
2022/12/06 03:20:57;;;;;;;28.83;16.85;;;;;;;1.99;93.25;98885.84;5023845;28;20477;-83
2022/12/06 03:23:29;;;;;;;29.65;17.65;;;;;;;2.21;93.21;98907.63;5023651;28;20036;-82
2022/12/06 03:25:59;;;;;;;26.30;16.65;;;;;;;2.14;92.85;98909.44;5019936;28;20056;-82
2022/12/06 03:28:26;;;;;;;31.02;17.55;;;;;;;2.04;92.92;98885.25;5023991;28;20037;-82
2022/12/06 03:30:56;;;;;;;30.27;16.85;;;;;;;2.01;93.31;98891.72;5022037;28;20052;-82
2022/12/06 03:33:25;;;;;;;28.67;16.05;;;;;;;2.05;92.88;98908.75;5020221;28;20029;-82
2022/12/06 03:35:54;;;;;;;37.78;19.98;;;;;;;1.95;93.20;98900.41;5018853;28;20080;-82
2022/12/06 03:38:28;;;;;;;35.40;17.30;;;;;;;2.02;93.09;98889.91;5005070;28;20485;-83
2022/12/06 03:40:56;;;;;;;27.60;15.10;;;;;;;2.08;92.83;98904.94;5019220;28;20036;-83
2022/12/06 03:43:21;;;;;;;28.27;15.45;;;;;;;1.98;93.19;98889.50;5035743;28;20041;-82
2022/12/06 03:46:09;;;;;;;25.40;14.70;;;;;;;2.06;92.93;98904.31;5021489;28;20029;-83
2022/12/06 03:48:42;;;;;;;28.85;16.27;;;;;;;2.06;93.20;98899.88;5022791;28;20026;-82
2022/12/06 03:51:12;;;;;;;31.13;16.63;;;;;;;2.00;93.27;98886.66;5025584;28;20040;-82
2022/12/06 03:53:52;;;;;;;25.80;15.52;;;;;;;1.96;93.13;98883.63;5020279;28;20465;-83
2022/12/06 03:56:19;;;;;;;21.15;14.60;;;;;;;1.97;93.01;98887.84;5018329;28;20037;-82
2022/12/06 03:58:45;;;;;;;22.67;13.23;;;;;;;1.73;92.82;98888.28;5021716;28;20037;-82
2022/12/06 04:01:11;;;;;;;20.52;13.38;;;;;;;1.41;92.61;98892.28;5023755;28;20037;-83
2022/12/06 04:03:36;;;;;;;29.67;17.00;;;;;;;1.53;94.23;98874.97;5023886;28;20383;-82
2022/12/06 04:06:03;;;;;;;24.35;15.13;;;;;;;0.79;93.79;98858.94;5024967;28;20043;-83
2022/12/06 04:08:28;;;;;;;24.48;15.43;;;;;;;0.79;94.63;98891.25;5022534;28;20120;-82
2022/12/06 04:10:54;;;;;;;27.77;14.98;;;;;;;1.13;95.26;98872.19;5008326;28;20112;-83
2022/12/06 04:13:19;;;;;;;29.10;15.57;;;;;;;1.45;95.14;98864.59;5023509;28;20033;-83
2022/12/06 04:15:45;;;;;;;24.58;15.63;;;;;;;1.27;93.50;98880.00;5007017;28;20064;-82
2022/12/06 04:18:13;;;;;;;27.58;15.65;;;;;;;1.65;95.38;98882.34;5022421;28;20029;-83
2022/12/06 04:23:39;;;;;;;24.08;13.70;;;;;;;1.65;94.23;98869.19;5017649;28;20955;-82
2022/12/06 04:26:06;;;;;;;23.13;12.80;;;;;;;1.53;93.29;98879.41;5017847;28;20084;-82
2022/12/06 04:39:30;;;;;;;21.65;12.30;;;;;;;1.06;95.47;98853.75;5022396;28;20492;-82
2022/12/06 04:44:40;;;;;;;22.88;13.48;;;;;;;1.61;93.69;98860.06;5023138;28;20044;-83
2022/12/06 04:47:07;;;;;;;18.77;12.88;;;;;;;1.39;93.43;98860.13;5018101;28;20473;-82
2022/12/06 04:49:33;;;;;;;18.42;10.75;;;;;;;1.40;92.72;98869.63;5016742;28;20499;-83
2022/12/06 04:51:59;;;;;;;21.80;12.32;;;;;;;1.10;94.58;98865.50;5021348;28;20029;-83
2022/12/06 04:54:24;;;;;;;19.58;12.27;;;;;;;0.50;94.16;98846.69;5019468;28;20106;-81
2022/12/06 04:56:50;;;;;;;25.67;14.07;;;;;;;1.27;95.42;98868.69;5022933;28;20033;-83
2022/12/06 04:59:15;;;;;;;21.38;12.27;;;;;;;0.83;93.99;98837.31;5005157;28;20041;-82
2022/12/06 05:01:41;;;;;;;22.95;12.63;;;;;;;0.31;95.36;98847.22;5021217;28;20473;-82
2022/12/06 05:04:07;;;;;;;22.00;12.80;;;;;;;0.35;95.03;98845.91;4999689;28;20518;-82
2022/12/06 05:06:32;;;;;;;22.02;12.77;;;;;;;0.09;95.84;98869.97;4999829;28;20374;-82
2022/12/06 05:08:58;;;;;;;21.80;12.43;;;;;;;1.43;97.36;98861.34;5018469;28;20049;-82
2022/12/06 05:11:23;;;;;;;22.15;12.82;;;;;;;0.61;94.64;98861.97;5018690;28;20033;-82
2022/12/06 05:13:49;;;;;;;23.73;13.63;;;;;;;1.39;96.54;98830.38;5023013;28;20030;-83
2022/12/06 05:16:14;;;;;;;17.88;11.70;;;;;;;0.72;93.86;98840.47;5004841;28;20029;-83
2022/12/06 05:18:40;;;;;;;22.77;13.13;;;;;;;0.45;94.57;98843.78;5020887;28;20120;-82
2022/12/06 05:21:05;;;;;;;20.75;11.05;;;;;;;0.38;95.33;98859.47;5019040;28;20030;-84
2022/12/06 05:23:32;;;;;;;24.55;13.23;;;;;;;0.59;98.29;98850.81;5021669;28;20026;-83
2022/12/06 05:26:00;;;;;;;22.60;12.70;;;;;;;1.04;97.80;98861.00;5038611;28;20037;-83
2022/12/06 05:28:25;;;;;;;23.77;13.90;;;;;;;1.67;94.37;98859.31;5022851;28;20029;-83
2022/12/06 05:30:50;;;;;;;20.13;12.20;;;;;;;1.73;92.06;98854.09;5022272;28;20087;-84
2022/12/06 05:33:16;;;;;;;18.15;11.85;;;;;;;1.16;91.55;98856.84;5004852;28;20044;-83
2022/12/06 05:35:41;;;;;;;17.17;11.38;;;;;;;1.86;91.72;98856.00;5022045;28;20036;-86
2022/12/06 05:38:06;;;;;;;16.27;11.18;;;;;;;0.63;92.53;98838.94;4995403;28;20138;-86
2022/12/06 05:40:32;;;;;;;22.30;11.80;;;;;;;1.21;94.58;98851.84;4987893;28;20029;-84
2022/12/06 05:42:57;;;;;;;15.95;11.00;;;;;;;0.77;92.75;98814.44;5020965;28;20041;-84
2022/12/06 05:45:23;;;;;;;21.17;12.38;;;;;;;1.20;94.43;98831.03;5022957;28;20038;-85
2022/12/06 05:47:48;;;;;;;17.48;10.75;;;;;;;1.63;92.56;98842.28;4995427;28;20140;-84
2022/12/06 05:50:14;;;;;;;18.73;11.90;;;;;;;1.72;91.81;98822.72;5028102;28;20037;-84
2022/12/06 05:52:40;;;;;;;15.57;11.27;;;;;;;1.45;90.57;98769.13;4995798;28;20749;-84
2022/12/06 05:55:05;;;;;;;16.33;11.43;;;;;;;1.90;90.62;98833.56;5030234;28;20032;-85
2022/12/06 05:57:31;;;;;;;16.00;10.25;;;;;;;1.74;90.42;98823.34;5025573;28;20029;-84
2022/12/06 05:59:56;;;;;;;18.67;12.32;;;;;;;1.71;91.75;98832.44;4990059;28;20495;-84
2022/12/06 06:02:22;;;;;;;19.92;13.55;;;;;;;1.51;91.38;98819.13;5005231;28;20471;-84
2022/12/06 06:04:47;;;;;;;19.45;12.63;;;;;;;1.25;91.03;98836.50;5016218;28;20037;-84
2022/12/06 06:07:12;;;;;;;21.13;12.77;;;;;;;1.62;92.77;98833.56;5031710;28;20037;-84
2022/12/06 06:09:38;;;;;;;18.17;11.70;;;;;;;1.88;91.54;98843.47;5022753;28;20029;-84
2022/12/06 06:12:03;;;;;;;18.77;12.70;;;;;;;1.76;91.46;98851.09;5014404;28;20034;-84
2022/12/06 06:14:29;;;;;;;15.23;10.75;;;;;;;1.46;91.78;98845.19;5028184;28;20057;-83
2022/12/06 06:16:54;;;;;;;15.32;10.13;;;;;;;1.59;91.31;98831.34;5033012;28;20070;-84
2022/12/06 06:19:22;;;;;;;17.58;11.27;;;;;;;1.39;92.38;98812.78;5001000;28;20033;-84
2022/12/06 06:21:48;;;;;;;17.13;11.43;;;;;;;1.82;90.94;98852.94;5031735;28;20066;-84
2022/12/06 06:24:13;;;;;;;16.50;10.52;;;;;;;2.01;90.22;98839.09;5033456;28;20166;-84
2022/12/06 06:26:38;;;;;;;13.05;10.20;;;;;;;2.12;89.23;98846.44;4999987;28;20026;-84
2022/12/06 06:29:04;;;;;;;12.70;9.38;;;;;;;1.25;90.01;98860.16;5012826;28;20063;-84
2022/12/06 06:31:29;;;;;;;18.42;11.20;;;;;;;0.36;93.77;98850.13;5033193;28;20065;-84
2022/12/06 06:33:55;;;;;;;17.15;10.75;;;;;;;0.55;93.51;98863.50;5012927;28;20041;-84
2022/12/06 06:36:20;;;;;;;19.40;11.85;;;;;;;0.73;95.33;98852.59;5025569;28;20065;-84
2022/12/06 06:38:45;;;;;;;20.08;12.82;;;;;;;1.30;94.13;98848.09;4994440;28;20034;-84
2022/12/06 06:41:11;;;;;;;20.73;12.85;;;;;;;1.45;93.63;98858.53;5026083;28;20397;-83
2022/12/06 06:43:36;;;;;;;21.48;12.90;;;;;;;1.86;91.54;98859.44;4994381;28;20030;-84
2022/12/06 06:46:07;;;;;;;22.25;13.50;;;;;;;0.68;93.16;98854.94;5012539;28;20478;-84
2022/12/06 06:48:36;;;;;;;16.88;12.27;;;;;;;1.50;93.44;98859.59;5031086;28;20053;-84
2022/12/06 06:51:07;;;;;;;19.83;13.52;;;;;;;1.24;93.32;98822.56;5030509;28;20029;-84
2022/12/06 06:53:32;;;;;;;25.10;16.65;;;;;;;1.51;93.25;98858.59;5026545;28;20040;-84
2022/12/06 06:55:58;;;;;;;18.55;13.65;;;;;;;1.93;91.70;98855.03;5031198;28;20033;-85
2022/12/06 06:58:24;;;;;;;19.80;13.93;;;;;;;2.07;90.71;98858.56;5014306;28;20064;-84
2022/12/06 07:00:58;;;;;;;18.60;12.85;;;;;;;1.95;90.61;98855.66;5030022;28;20513;-84
2022/12/06 07:03:24;;;;;;;17.90;12.98;;;;;;;1.95;90.44;98844.31;5023335;28;20040;-84
2022/12/06 07:05:55;;;;;;;17.13;12.38;;;;;;;1.76;90.45;98856.34;5009191;28;20037;-84
2022/12/06 07:08:21;;;;;;;15.57;12.10;;;;;;;1.52;92.23;98847.06;5027018;28;20042;-84
2022/12/06 07:10:47;;;;;;;17.10;11.68;;;;;;;1.58;91.65;98834.13;5008317;28;20036;-84
2022/12/06 07:13:21;;;;;;;18.02;11.13;;;;;;;1.64;91.32;98841.28;5030674;28;20033;-84
2022/12/06 07:15:47;;;;;;;15.70;10.00;;;;;;;1.67;90.71;98815.41;5011509;28;20022;-84
2022/12/06 07:18:12;;;;;;;19.27;13.18;;;;;;;1.06;92.60;98859.00;5019187;28;20120;-84
2022/12/06 07:20:38;;;;;;;17.90;12.82;;;;;;;1.13;93.28;98845.91;5028861;28;20109;-83
2022/12/06 07:23:03;;;;;;;17.88;12.32;;;;;;;0.87;94.78;98827.28;5012909;28;20064;-84
2022/12/06 07:25:30;;;;;;;16.65;12.02;;;;;;;1.64;92.76;98862.34;5029077;28;20045;-84
2022/12/06 07:27:56;;;;;;;21.27;12.45;;;;;;;1.35;93.42;98831.75;5030310;28;20032;-85
2022/12/06 07:30:21;;;;;;;18.92;11.90;;;;;;;1.34;92.13;98788.06;5024854;28;20386;-83
2022/12/06 07:32:46;;;;;;;22.08;13.55;;;;;;;1.22;93.31;98847.41;5010334;28;20642;-82
2022/12/06 07:35:12;;;;;;;21.77;12.70;;;;;;;1.06;92.53;98863.44;5029303;28;20040;-82
2022/12/06 07:37:41;;;;;;;16.58;11.90;;;;;;;1.15;94.26;98863.13;5028972;28;20484;-82
2022/12/06 07:40:07;;;;;;;18.83;11.68;;;;;;;1.15;91.95;98847.38;5020609;28;20096;-82
2022/12/06 07:45:16;;;;;;;17.77;10.85;;;;;;;1.33;92.50;98862.69;5026434;28;20131;-82
2022/12/06 07:47:43;;;;;;;16.65;11.40;;;;;;;0.95;93.63;98848.16;5029294;28;20120;-81
2022/12/06 07:50:15;;;;;;;16.52;11.05;;;;;;;0.87;94.17;98845.66;5010752;28;20029;-82
2022/12/06 07:52:40;;;;;;;20.48;11.75;;;;;;;1.43;93.52;98850.03;4993458;28;20064;-82
2022/12/06 07:55:08;;;;;;;16.10;10.20;;;;;;;1.42;92.65;98858.94;5006927;28;20025;-82
2022/12/06 07:57:33;;;;;;;16.20;10.10;;;;;;;1.53;92.70;98859.19;5025883;28;20112;-82
2022/12/06 07:59:59;;;;;;;17.23;11.50;;;;;;;1.11;92.34;98854.00;5023863;28;20032;-81
2022/12/06 08:02:26;;;;;;;19.42;11.18;;;;;;;0.57;94.30;98855.44;5027264;28;20546;-81
2022/12/06 08:04:52;;;;;;;17.27;11.15;;;;;;;1.21;94.29;98853.66;5030229;28;20100;-82
2022/12/06 08:07:19;;;;;;;14.90;10.98;;;;;;;1.01;92.97;98861.38;5024201;28;20358;-82
2022/12/06 08:09:45;;;;;;;18.60;11.27;;;;;;;1.14;94.76;98837.84;5025758;28;20033;-82
2022/12/06 08:12:11;;;;;;;14.98;11.02;;;;;;;1.53;93.33;98850.50;5013709;28;20040;-82
2022/12/06 08:14:36;;;;;;;16.85;11.02;;;;;;;1.23;93.10;98847.22;5029155;28;20025;-82
2022/12/06 08:17:04;;;;;;;16.13;10.35;;;;;;;1.61;93.32;98865.34;5023136;28;20029;-82
2022/12/06 08:19:30;;;;;;;17.23;10.82;;;;;;;1.28;92.47;98859.81;5026125;28;20032;-81
2022/12/06 08:21:56;;;;;;;20.98;10.50;;;;;;;1.50;93.31;98840.38;5020740;28;20026;-82
2022/12/06 08:24:21;;;;;;;14.10;10.27;;;;;;;1.49;92.16;98844.81;5029973;28;20469;-82
2022/12/06 08:26:47;;;;;;;13.05;9.32;;;;;;;1.72;92.10;98859.53;5031365;28;20022;-81
2022/12/06 08:29:13;;;;;;;13.18;9.70;;;;;;;1.58;92.95;98870.97;5029944;28;20036;-82
2022/12/06 08:31:38;;;;;;;12.50;9.75;;;;;;;1.21;92.59;98857.13;5021065;28;20029;-81
2022/12/06 08:34:04;;;;;;;10.93;8.60;;;;;;;1.33;93.49;98863.47;5021965;28;20441;-81
2022/12/06 08:36:29;;;;;;;12.68;9.60;;;;;;;1.47;93.27;98883.63;5020513;28;20493;-82
2022/12/06 08:38:58;;;;;;;13.15;10.07;;;;;;;1.55;93.63;98879.25;5020498;28;21669;-81
2022/12/06 08:44:12;;;;;;;15.02;10.32;;;;;;;1.43;93.07;98868.44;5022910;28;20040;-82
2022/12/06 08:46:37;;;;;;;13.88;10.25;;;;;;;1.52;93.39;98862.03;5022265;28;20022;-82
2022/12/06 08:49:03;;;;;;;13.18;10.13;;;;;;;1.49;92.91;98872.91;5025244;28;20043;-81
2022/12/06 08:51:29;;;;;;;14.43;10.27;;;;;;;1.72;92.81;98888.50;5005769;28;20044;-81
2022/12/06 08:53:55;;;;;;;14.85;10.32;;;;;;;1.63;93.26;98873.84;5027678;28;21044;-82
2022/12/06 08:56:21;;;;;;;12.93;9.05;;;;;;;1.41;92.59;98873.06;5025342;28;20021;-81
2022/12/06 08:58:47;;;;;;;12.30;9.10;;;;;;;1.39;93.82;98862.75;5030779;28;20032;-81
2022/12/06 09:01:15;;;;;;;11.55;9.55;;;;;;;1.48;94.24;98893.16;5026462;28;20117;-82
2022/12/06 09:03:40;;;;;;;13.30;9.85;;;;;;;1.76;93.23;98881.84;5027629;28;20029;-82
2022/12/06 09:06:07;;;;;;;10.88;8.80;;;;;;;1.48;93.64;98897.59;5011005;28;20037;-81
2022/12/06 09:08:32;;;;;;;13.85;10.05;;;;;;;1.74;93.07;98891.75;5023971;28;20034;-82
2022/12/06 09:10:58;;;;;;;13.20;9.80;;;;;;;1.41;93.73;98880.94;5029387;28;20026;-81
2022/12/06 09:13:23;;;;;;;13.65;9.50;;;;;;;1.69;93.12;98899.38;5030400;28;20064;-82
2022/12/06 09:15:48;;;;;;;13.10;9.82;;;;;;;1.90;92.51;98897.50;5030488;28;20025;-82
2022/12/06 09:18:14;;;;;;;12.10;8.48;;;;;;;1.62;92.61;98890.66;5011471;28;20030;-81
2022/12/06 09:20:40;;;;;;;14.48;9.15;;;;;;;1.31;93.09;98897.03;5029871;28;20030;-82
2022/12/06 09:23:05;;;;;;;10.32;8.20;;;;;;;1.48;94.75;98905.50;5026173;28;20060;-81
2022/12/06 09:25:31;;;;;;;14.25;9.75;;;;;;;1.79;93.29;98894.63;5028102;28;20065;-81
2022/12/06 09:27:57;;;;;;;11.20;9.20;;;;;;;1.84;92.92;98908.81;5006610;28;20053;-81
2022/12/06 09:30:23;;;;;;;13.27;8.60;;;;;;;1.66;93.51;98905.03;5029426;28;20458;-81
2022/12/06 09:32:48;;;;;;;11.20;8.15;;;;;;;1.77;93.44;98901.88;5002113;28;20052;-81
2022/12/06 09:35:14;;;;;;;11.95;9.00;;;;;;;1.49;93.72;98910.56;5028106;28;20031;-81
2022/12/06 09:37:40;;;;;;;14.82;9.00;;;;;;;1.27;93.29;98900.22;5014511;28;20122;-81
2022/12/06 09:40:15;;;;;;;9.60;7.30;;;;;;;1.47;94.40;98886.25;5028350;28;20026;-81
2022/12/06 09:42:55;;;;;;;13.40;8.02;;;;;;;1.68;94.04;98906.47;5030381;28;20034;-81
2022/12/06 09:45:29;;;;;;;11.15;8.75;;;;;;;1.46;93.81;98910.91;5032370;28;20029;-81
2022/12/06 09:48:12;;;;;;;11.20;8.57;;;;;;;1.51;94.18;98908.53;5016252;28;20029;-81
2022/12/06 09:50:59;;;;;;;12.02;9.13;;;;;;;1.53;93.99;98910.97;5029936;28;20030;-81
2022/12/06 09:53:46;;;;;;;13.88;8.55;;;;;;;1.91;93.48;98907.06;5030119;28;20680;-81
2022/12/06 09:56:11;;;;;;;15.02;8.55;;;;;;;1.65;94.12;98900.78;5026351;28;20033;-81
2022/12/06 09:58:48;;;;;;;13.15;9.57;;;;;;;1.28;94.62;98904.50;5027595;28;20021;-81
2022/12/06 10:01:36;;;;;;;13.88;9.93;;;;;;;1.80;94.33;98893.59;5026911;28;20401;-81
2022/12/06 10:04:07;;;;;;;11.00;8.85;;;;;;;1.73;94.80;98892.72;5028284;28;20022;-81
2022/12/06 10:06:54;;;;;;;12.60;8.90;;;;;;;1.96;93.58;98899.41;5033369;28;20091;-81
2022/12/06 10:09:49;;;;;;;13.40;8.75;;;;;;;1.72;92.85;98881.41;5027640;28;20393;-81
2022/12/06 10:12:33;;;;;;;13.73;8.98;;;;;;;1.41;94.96;98902.00;5026837;28;20045;-81
2022/12/06 10:15:21;;;;;;;13.75;9.45;;;;;;;1.75;95.05;98896.00;5026722;28;20048;-81
2022/12/06 10:17:59;;;;;;;14.43;9.57;;;;;;;1.72;94.49;98886.69;5030022;28;20029;-81
2022/12/06 10:20:48;;;;;;;10.38;8.45;;;;;;;1.85;94.29;98875.44;5029981;28;20036;-81
2022/12/06 10:23:20;;;;;;;19.38;10.63;;;;;;;1.47;95.05;98881.00;5044485;28;20029;-80
2022/12/06 10:25:58;;;;;;;15.77;10.38;;;;;;;1.75;94.21;98857.34;5029875;28;20025;-81
2022/12/06 10:28:51;;;;;;;13.15;9.05;;;;;;;1.92;93.37;98873.66;5030762;28;20033;-81
2022/12/06 10:31:25;;;;;;;15.45;9.70;;;;;;;1.90;94.62;98865.16;5028324;28;20107;-81
2022/12/06 10:33:57;;;;;;;12.25;8.35;;;;;;;1.69;94.84;98846.78;5031615;28;20040;-81
2022/12/06 10:36:48;;;;;;;20.30;11.05;;;;;;;1.74;93.71;98849.66;5010493;28;20339;-80
2022/12/06 10:39:26;;;;;;;15.43;9.95;;;;;;;2.06;94.30;98872.72;5029808;28;20033;-81
2022/12/06 10:42:01;;;;;;;14.77;8.35;;;;;;;2.12;93.92;98848.25;5031630;28;20028;-81
2022/12/06 10:44:31;;;;;;;12.82;8.27;;;;;;;1.58;94.47;98850.75;5031829;28;20512;-80
2022/12/06 10:47:13;;;;;;;14.23;9.20;;;;;;;2.31;94.02;98866.00;5026165;28;20025;-81
2022/12/06 10:49:50;;;;;;;13.82;9.30;;;;;;;2.37;93.11;98875.72;5029150;28;20025;-81
2022/12/06 10:52:21;;;;;;;14.15;8.55;;;;;;;2.30;93.80;98866.97;5032737;28;20099;-81
2022/12/06 10:54:56;;;;;;;11.48;7.85;;;;;;;2.37;93.39;98867.00;5030767;28;20025;-81
2022/12/06 10:57:53;;;;;;;10.43;7.55;;;;;;;2.39;92.10;98843.94;5030946;28;20072;-81
2022/12/06 11:00:21;;;;;;;9.38;6.80;;;;;;;2.42;92.38;98864.63;5023018;28;20041;-81
2022/12/06 11:03:17;;;;;;;12.73;7.75;;;;;;;2.33;92.35;98860.53;5024016;28;20037;-81
2022/12/06 11:05:44;;;;;;;11.00;7.15;;;;;;;2.56;91.58;98858.38;5029499;28;20029;-81
2022/12/06 11:08:23;;;;;;;12.35;8.25;;;;;;;2.50;92.03;98861.81;5031001;28;20478;-81
2022/12/06 11:10:50;;;;;;;9.85;7.65;;;;;;;2.43;92.39;98851.25;5030352;28;20044;-81
2022/12/06 11:13:25;;;;;;;12.00;8.15;;;;;;;2.60;92.07;98865.69;5032095;28;20030;-80
2022/12/06 11:16:05;;;;;;;13.95;8.00;;;;;;;2.14;92.62;98854.16;5028961;28;20055;-81
2022/12/06 11:18:32;;;;;;;15.90;9.27;;;;;;;2.23;93.34;98858.22;5028565;28;20035;-81
2022/12/06 11:21:14;;;;;;;12.43;7.28;;;;;;;2.47;92.63;98875.38;5024927;28;20156;-81
2022/12/06 11:24:14;;;;;;;13.57;8.45;;;;;;;2.53;91.66;98871.97;5031168;28;20116;-80
2022/12/06 11:26:58;;;;;;;12.40;7.88;;;;;;;2.15;92.54;98845.25;5019050;28;20492;-80
2022/12/06 11:29:24;;;;;;;12.88;7.50;;;;;;;2.47;93.04;98852.47;5028023;28;20033;-81
2022/12/06 11:31:56;;;;;;;18.00;9.70;;;;;;;2.49;92.56;98858.34;5013994;28;20029;-81
2022/12/06 11:34:28;;;;;;;13.07;7.60;;;;;;;2.51;92.42;98864.22;5028906;28;20033;-81
2022/12/06 11:36:54;;;;;;;17.73;8.55;;;;;;;2.62;92.22;98847.06;5024381;28;20029;-81
2022/12/06 11:39:21;;;;;;;17.58;9.02;;;;;;;2.42;92.75;98833.00;5031547;28;20029;-81
2022/12/06 11:41:51;;;;;;;15.80;8.20;;;;;;;2.73;92.60;98849.94;5024084;28;20052;-81
2022/12/06 11:44:21;;;;;;;15.50;8.20;;;;;;;2.58;92.30;98844.00;5026632;28;20129;-81
2022/12/06 11:46:52;;;;;;;15.80;8.35;;;;;;;2.65;92.60;98850.13;5029270;28;20068;-81
2022/12/06 11:49:43;;;;;;;13.25;8.23;;;;;;;2.53;92.10;98835.09;5024771;28;20042;-81
2022/12/06 11:52:37;;;;;;;12.50;8.50;;;;;;;2.51;92.34;98837.88;5027751;28;20037;-81
2022/12/06 11:55:12;;;;;;;16.90;8.82;;;;;;;2.44;93.42;98844.97;5032188;28;20045;-81
2022/12/06 11:57:45;;;;;;;15.65;8.10;;;;;;;2.47;92.32;98802.44;5026161;28;20064;-81
2022/12/06 12:00:15;;;;;;;13.30;9.52;;;;;;;2.69;92.22;98843.44;5026933;28;20022;-81
2022/12/06 12:02:43;;;;;;;15.55;9.00;;;;;;;2.73;92.38;98846.50;5030171;28;20033;-81